sensor_id;sensor_type;location;lat;lon;timestamp;P1;durP1;ratioP1;P2;durP2;ratioP2
64500;SDS011;50874;24.150;-110.320;2023-05-18T00:01:10;24.83;;;4.63;;
64500;SDS011;50874;24.150;-110.320;2023-05-18T00:03:38;40.97;;;4.63;;
64500;SDS011;50874;24.150;-110.320;2023-05-18T00:06:05;15.73;;;2.55;;
64500;SDS011;50874;24.150;-110.320;2023-05-18T00:08:32;14.55;;;3.10;;
64500;SDS011;50874;24.150;-110.320;2023-05-18T00:11:00;17.58;;;3.20;;
64500;SDS011;50874;24.150;-110.320;2023-05-18T00:13:28;20.95;;;2.97;;
64500;SDS011;50874;24.150;-110.320;2023-05-18T00:15:55;10.38;;;3.47;;
64500;SDS011;50874;24.150;-110.320;2023-05-18T00:18:21;18.83;;;3.60;;
64500;SDS011;50874;24.150;-110.320;2023-05-18T00:20:51;11.27;;;2.67;;
64500;SDS011;50874;24.150;-110.320;2023-05-18T00:23:30;14.35;;;2.67;;
64500;SDS011;50874;24.150;-110.320;2023-05-18T00:26:01;13.73;;;2.88;;
64500;SDS011;50874;24.150;-110.320;2023-05-18T00:28:28;11.30;;;2.80;;
64500;SDS011;50874;24.150;-110.320;2023-05-18T00:30:54;8.85;;;2.47;;
64500;SDS011;50874;24.150;-110.320;2023-05-18T00:33:22;6.82;;;2.20;;
64500;SDS011;50874;24.150;-110.320;2023-05-18T00:35:49;9.63;;;2.33;;
64500;SDS011;50874;24.150;-110.320;2023-05-18T00:38:15;10.63;;;2.72;;
64500;SDS011;50874;24.150;-110.320;2023-05-18T00:40:45;8.90;;;2.63;;
64500;SDS011;50874;24.150;-110.320;2023-05-18T00:43:11;11.57;;;2.67;;
64500;SDS011;50874;24.150;-110.320;2023-05-18T00:45:38;10.80;;;2.65;;
64500;SDS011;50874;24.150;-110.320;2023-05-18T00:48:04;16.40;;;3.17;;
64500;SDS011;50874;24.150;-110.320;2023-05-18T00:50:31;20.45;;;3.88;;
64500;SDS011;50874;24.150;-110.320;2023-05-18T00:52:58;19.85;;;3.30;;
64500;SDS011;50874;24.150;-110.320;2023-05-18T00:55:25;9.63;;;2.40;;
64500;SDS011;50874;24.150;-110.320;2023-05-18T00:57:53;10.95;;;3.22;;
64500;SDS011;50874;24.150;-110.320;2023-05-18T01:00:20;14.55;;;2.85;;
64500;SDS011;50874;24.150;-110.320;2023-05-18T01:02:48;13.82;;;3.55;;
64500;SDS011;50874;24.150;-110.320;2023-05-18T01:05:15;16.02;;;3.17;;
64500;SDS011;50874;24.150;-110.320;2023-05-18T01:07:42;8.68;;;2.65;;
64500;SDS011;50874;24.150;-110.320;2023-05-18T01:10:12;13.07;;;3.30;;
64500;SDS011;50874;24.150;-110.320;2023-05-18T01:12:42;16.30;;;3.60;;
64500;SDS011;50874;24.150;-110.320;2023-05-18T01:15:17;19.55;;;3.10;;
64500;SDS011;50874;24.150;-110.320;2023-05-18T01:20:27;15.52;;;2.85;;
64500;SDS011;50874;24.150;-110.320;2023-05-18T01:25:44;11.50;;;2.85;;
64500;SDS011;50874;24.150;-110.320;2023-05-18T01:28:22;10.48;;;2.50;;
64500;SDS011;50874;24.150;-110.320;2023-05-18T01:30:57;30.45;;;3.15;;
64500;SDS011;50874;24.150;-110.320;2023-05-18T01:33:24;16.95;;;3.75;;
64500;SDS011;50874;24.150;-110.320;2023-05-18T01:35:51;10.40;;;2.83;;
64500;SDS011;50874;24.150;-110.320;2023-05-18T01:38:24;21.48;;;3.42;;
64500;SDS011;50874;24.150;-110.320;2023-05-18T01:43:32;14.60;;;3.85;;
64500;SDS011;50874;24.150;-110.320;2023-05-18T01:46:39;11.15;;;2.70;;
64500;SDS011;50874;24.150;-110.320;2023-05-18T01:48:59;17.00;;;2.75;;
64500;SDS011;50874;24.150;-110.320;2023-05-18T01:51:40;12.45;;;3.25;;
64500;SDS011;50874;24.150;-110.320;2023-05-18T01:54:10;15.27;;;2.97;;
64500;SDS011;50874;24.150;-110.320;2023-05-18T01:56:40;14.18;;;3.60;;
64500;SDS011;50874;24.150;-110.320;2023-05-18T01:59:08;12.30;;;3.00;;
64500;SDS011;50874;24.150;-110.320;2023-05-18T02:01:35;12.45;;;2.60;;
64500;SDS011;50874;24.150;-110.320;2023-05-18T02:04:06;12.07;;;3.25;;
64500;SDS011;50874;24.150;-110.320;2023-05-18T02:06:34;15.75;;;2.60;;
64500;SDS011;50874;24.150;-110.320;2023-05-18T02:09:01;12.63;;;2.58;;
64500;SDS011;50874;24.150;-110.320;2023-05-18T02:11:29;12.18;;;2.65;;
64500;SDS011;50874;24.150;-110.320;2023-05-18T02:13:55;13.82;;;2.67;;
64500;SDS011;50874;24.150;-110.320;2023-05-18T02:16:22;11.13;;;2.65;;
64500;SDS011;50874;24.150;-110.320;2023-05-18T02:18:48;11.13;;;2.55;;
64500;SDS011;50874;24.150;-110.320;2023-05-18T02:21:15;10.23;;;3.08;;
64500;SDS011;50874;24.150;-110.320;2023-05-18T02:23:41;11.13;;;2.95;;
64500;SDS011;50874;24.150;-110.320;2023-05-18T02:26:08;10.98;;;2.90;;
64500;SDS011;50874;24.150;-110.320;2023-05-18T02:28:35;10.00;;;2.70;;
64500;SDS011;50874;24.150;-110.320;2023-05-18T02:31:08;9.35;;;2.75;;
64500;SDS011;50874;24.150;-110.320;2023-05-18T02:33:36;11.43;;;2.83;;
64500;SDS011;50874;24.150;-110.320;2023-05-18T02:36:07;10.38;;;2.58;;
64500;SDS011;50874;24.150;-110.320;2023-05-18T02:38:37;11.07;;;2.53;;
64500;SDS011;50874;24.150;-110.320;2023-05-18T02:41:06;7.60;;;2.88;;
64500;SDS011;50874;24.150;-110.320;2023-05-18T02:43:33;15.18;;;2.35;;
64500;SDS011;50874;24.150;-110.320;2023-05-18T02:45:59;11.30;;;2.30;;
64500;SDS011;50874;24.150;-110.320;2023-05-18T02:48:26;10.70;;;2.67;;
64500;SDS011;50874;24.150;-110.320;2023-05-18T02:50:53;9.45;;;2.63;;
64500;SDS011;50874;24.150;-110.320;2023-05-18T02:53:20;14.10;;;2.85;;
64500;SDS011;50874;24.150;-110.320;2023-05-18T02:55:47;13.77;;;2.47;;
64500;SDS011;50874;24.150;-110.320;2023-05-18T02:58:14;17.08;;;2.95;;
64500;SDS011;50874;24.150;-110.320;2023-05-18T03:00:40;16.52;;;2.95;;
64500;SDS011;50874;24.150;-110.320;2023-05-18T03:03:07;7.78;;;2.42;;
64500;SDS011;50874;24.150;-110.320;2023-05-18T03:05:40;16.10;;;3.27;;
64500;SDS011;50874;24.150;-110.320;2023-05-18T03:08:10;17.23;;;2.70;;
64500;SDS011;50874;24.150;-110.320;2023-05-18T03:10:36;8.25;;;2.75;;
64500;SDS011;50874;24.150;-110.320;2023-05-18T03:13:03;12.52;;;3.03;;
64500;SDS011;50874;24.150;-110.320;2023-05-18T03:15:29;11.48;;;2.80;;
64500;SDS011;50874;24.150;-110.320;2023-05-18T03:17:56;10.65;;;2.35;;
64500;SDS011;50874;24.150;-110.320;2023-05-18T03:20:24;13.13;;;2.47;;
64500;SDS011;50874;24.150;-110.320;2023-05-18T03:22:51;10.88;;;2.25;;
64500;SDS011;50874;24.150;-110.320;2023-05-18T03:25:17;18.35;;;3.25;;
64500;SDS011;50874;24.150;-110.320;2023-05-18T03:27:43;10.45;;;2.63;;
64500;SDS011;50874;24.150;-110.320;2023-05-18T03:30:11;15.93;;;3.30;;
64500;SDS011;50874;24.150;-110.320;2023-05-18T03:32:37;15.15;;;3.95;;
64500;SDS011;50874;24.150;-110.320;2023-05-18T03:35:05;13.23;;;2.67;;
64500;SDS011;50874;24.150;-110.320;2023-05-18T03:37:32;8.82;;;2.33;;
64500;SDS011;50874;24.150;-110.320;2023-05-18T03:39:59;13.30;;;2.20;;
64500;SDS011;50874;24.150;-110.320;2023-05-18T03:42:35;10.55;;;2.10;;
64500;SDS011;50874;24.150;-110.320;2023-05-18T03:45:02;10.15;;;2.50;;
64500;SDS011;50874;24.150;-110.320;2023-05-18T03:47:29;19.77;;;3.17;;
64500;SDS011;50874;24.150;-110.320;2023-05-18T03:49:55;9.88;;;2.88;;
64500;SDS011;50874;24.150;-110.320;2023-05-18T03:52:21;11.70;;;3.15;;
64500;SDS011;50874;24.150;-110.320;2023-05-18T03:54:48;15.77;;;3.08;;
64500;SDS011;50874;24.150;-110.320;2023-05-18T03:57:16;7.95;;;2.55;;
64500;SDS011;50874;24.150;-110.320;2023-05-18T03:59:43;10.10;;;2.53;;
64500;SDS011;50874;24.150;-110.320;2023-05-18T04:02:10;11.55;;;2.42;;
64500;SDS011;50874;24.150;-110.320;2023-05-18T04:04:37;7.45;;;2.75;;
64500;SDS011;50874;24.150;-110.320;2023-05-18T04:07:10;10.57;;;2.78;;
64500;SDS011;50874;24.150;-110.320;2023-05-18T04:09:38;13.43;;;2.45;;
64500;SDS011;50874;24.150;-110.320;2023-05-18T04:12:04;9.48;;;2.47;;
64500;SDS011;50874;24.150;-110.320;2023-05-18T04:14:31;6.80;;;2.05;;
64500;SDS011;50874;24.150;-110.320;2023-05-18T04:16:58;10.10;;;2.53;;
64500;SDS011;50874;24.150;-110.320;2023-05-18T04:19:35;10.20;;;2.72;;
64500;SDS011;50874;24.150;-110.320;2023-05-18T04:22:02;12.43;;;2.97;;
64500;SDS011;50874;24.150;-110.320;2023-05-18T04:24:30;16.52;;;2.72;;
64500;SDS011;50874;24.150;-110.320;2023-05-18T04:26:58;13.18;;;2.78;;
64500;SDS011;50874;24.150;-110.320;2023-05-18T04:29:28;9.90;;;2.75;;
64500;SDS011;50874;24.150;-110.320;2023-05-18T04:31:55;7.57;;;2.38;;
64500;SDS011;50874;24.150;-110.320;2023-05-18T04:34:28;13.05;;;2.83;;
64500;SDS011;50874;24.150;-110.320;2023-05-18T04:36:56;11.25;;;2.88;;
64500;SDS011;50874;24.150;-110.320;2023-05-18T04:39:23;9.25;;;2.95;;
64500;SDS011;50874;24.150;-110.320;2023-05-18T04:41:53;10.77;;;2.13;;
64500;SDS011;50874;24.150;-110.320;2023-05-18T04:44:28;9.80;;;2.83;;
64500;SDS011;50874;24.150;-110.320;2023-05-18T04:46:58;10.82;;;3.50;;
64500;SDS011;50874;24.150;-110.320;2023-05-18T04:49:25;9.25;;;2.90;;
64500;SDS011;50874;24.150;-110.320;2023-05-18T04:51:53;8.63;;;2.38;;
64500;SDS011;50874;24.150;-110.320;2023-05-18T04:54:21;10.23;;;2.53;;
64500;SDS011;50874;24.150;-110.320;2023-05-18T04:56:48;7.53;;;2.30;;
64500;SDS011;50874;24.150;-110.320;2023-05-18T04:59:16;7.40;;;2.65;;
64500;SDS011;50874;24.150;-110.320;2023-05-18T05:01:43;5.57;;;2.25;;
64500;SDS011;50874;24.150;-110.320;2023-05-18T05:04:10;7.95;;;2.53;;
64500;SDS011;50874;24.150;-110.320;2023-05-18T05:06:37;18.80;;;3.58;;
64500;SDS011;50874;24.150;-110.320;2023-05-18T05:09:04;8.93;;;3.08;;
64500;SDS011;50874;24.150;-110.320;2023-05-18T05:11:30;15.80;;;2.97;;
64500;SDS011;50874;24.150;-110.320;2023-05-18T05:13:57;17.05;;;3.83;;
64500;SDS011;50874;24.150;-110.320;2023-05-18T05:16:23;14.88;;;2.63;;
64500;SDS011;50874;24.150;-110.320;2023-05-18T05:18:50;16.63;;;2.88;;
64500;SDS011;50874;24.150;-110.320;2023-05-18T05:21:16;12.52;;;2.70;;
64500;SDS011;50874;24.150;-110.320;2023-05-18T05:23:43;7.45;;;2.70;;
64500;SDS011;50874;24.150;-110.320;2023-05-18T05:26:09;15.43;;;3.33;;
64500;SDS011;50874;24.150;-110.320;2023-05-18T05:28:36;11.93;;;2.25;;
64500;SDS011;50874;24.150;-110.320;2023-05-18T05:31:02;9.15;;;3.10;;
64500;SDS011;50874;24.150;-110.320;2023-05-18T05:33:29;9.05;;;2.92;;
64500;SDS011;50874;24.150;-110.320;2023-05-18T05:35:55;14.98;;;2.67;;
64500;SDS011;50874;24.150;-110.320;2023-05-18T05:38:21;12.07;;;2.22;;
64500;SDS011;50874;24.150;-110.320;2023-05-18T05:40:48;10.70;;;3.00;;
64500;SDS011;50874;24.150;-110.320;2023-05-18T05:43:14;14.32;;;3.00;;
64500;SDS011;50874;24.150;-110.320;2023-05-18T05:45:41;9.30;;;2.55;;
64500;SDS011;50874;24.150;-110.320;2023-05-18T05:48:08;18.92;;;3.28;;
64500;SDS011;50874;24.150;-110.320;2023-05-18T05:50:35;7.07;;;2.78;;
64500;SDS011;50874;24.150;-110.320;2023-05-18T05:53:01;11.90;;;2.47;;
64500;SDS011;50874;24.150;-110.320;2023-05-18T05:55:28;11.73;;;2.50;;
64500;SDS011;50874;24.150;-110.320;2023-05-18T05:57:55;12.25;;;2.50;;
64500;SDS011;50874;24.150;-110.320;2023-05-18T06:00:21;10.13;;;2.75;;
64500;SDS011;50874;24.150;-110.320;2023-05-18T06:02:48;9.25;;;2.70;;
64500;SDS011;50874;24.150;-110.320;2023-05-18T06:05:15;12.70;;;3.33;;
64500;SDS011;50874;24.150;-110.320;2023-05-18T06:07:41;8.50;;;2.45;;
64500;SDS011;50874;24.150;-110.320;2023-05-18T06:10:08;10.65;;;2.72;;
64500;SDS011;50874;24.150;-110.320;2023-05-18T06:12:34;9.50;;;2.50;;
64500;SDS011;50874;24.150;-110.320;2023-05-18T06:15:01;8.32;;;2.05;;
64500;SDS011;50874;24.150;-110.320;2023-05-18T06:17:27;8.50;;;2.47;;
64500;SDS011;50874;24.150;-110.320;2023-05-18T06:19:54;11.48;;;2.83;;
64500;SDS011;50874;24.150;-110.320;2023-05-18T06:22:21;10.32;;;2.20;;
64500;SDS011;50874;24.150;-110.320;2023-05-18T06:24:49;15.50;;;2.92;;
64500;SDS011;50874;24.150;-110.320;2023-05-18T06:27:17;8.88;;;2.38;;
64500;SDS011;50874;24.150;-110.320;2023-05-18T06:29:43;10.40;;;2.65;;
64500;SDS011;50874;24.150;-110.320;2023-05-18T06:32:11;11.63;;;2.50;;
64500;SDS011;50874;24.150;-110.320;2023-05-18T06:34:38;13.35;;;2.72;;
64500;SDS011;50874;24.150;-110.320;2023-05-18T06:37:04;7.03;;;2.63;;
64500;SDS011;50874;24.150;-110.320;2023-05-18T06:39:31;7.22;;;2.40;;
64500;SDS011;50874;24.150;-110.320;2023-05-18T06:41:57;7.45;;;2.20;;
64500;SDS011;50874;24.150;-110.320;2023-05-18T06:44:24;7.00;;;2.60;;
64500;SDS011;50874;24.150;-110.320;2023-05-18T06:46:50;7.78;;;2.63;;
64500;SDS011;50874;24.150;-110.320;2023-05-18T06:49:17;13.73;;;2.60;;
64500;SDS011;50874;24.150;-110.320;2023-05-18T06:51:43;7.10;;;2.28;;
64500;SDS011;50874;24.150;-110.320;2023-05-18T06:54:10;6.88;;;2.50;;
64500;SDS011;50874;24.150;-110.320;2023-05-18T06:56:36;8.80;;;2.25;;
64500;SDS011;50874;24.150;-110.320;2023-05-18T06:59:03;6.22;;;2.53;;
64500;SDS011;50874;24.150;-110.320;2023-05-18T07:01:29;7.35;;;2.10;;
64500;SDS011;50874;24.150;-110.320;2023-05-18T07:03:56;9.35;;;2.47;;
64500;SDS011;50874;24.150;-110.320;2023-05-18T07:06:22;9.00;;;2.63;;
64500;SDS011;50874;24.150;-110.320;2023-05-18T07:08:49;4.72;;;2.20;;
64500;SDS011;50874;24.150;-110.320;2023-05-18T07:11:15;11.77;;;2.72;;
64500;SDS011;50874;24.150;-110.320;2023-05-18T07:13:42;9.32;;;2.25;;
64500;SDS011;50874;24.150;-110.320;2023-05-18T07:16:08;11.10;;;2.17;;
64500;SDS011;50874;24.150;-110.320;2023-05-18T07:18:34;5.47;;;1.85;;
64500;SDS011;50874;24.150;-110.320;2023-05-18T07:21:01;9.63;;;2.03;;
64500;SDS011;50874;24.150;-110.320;2023-05-18T07:23:27;6.07;;;2.50;;
64500;SDS011;50874;24.150;-110.320;2023-05-18T07:25:55;7.22;;;1.67;;
64500;SDS011;50874;24.150;-110.320;2023-05-18T07:28:21;4.20;;;1.75;;
64500;SDS011;50874;24.150;-110.320;2023-05-18T07:30:48;10.93;;;1.88;;
64500;SDS011;50874;24.150;-110.320;2023-05-18T07:33:14;9.90;;;2.83;;
64500;SDS011;50874;24.150;-110.320;2023-05-18T07:35:41;8.40;;;2.17;;
64500;SDS011;50874;24.150;-110.320;2023-05-18T07:38:07;11.18;;;2.97;;
64500;SDS011;50874;24.150;-110.320;2023-05-18T07:40:34;3.08;;;1.90;;
64500;SDS011;50874;24.150;-110.320;2023-05-18T07:43:00;6.25;;;2.53;;
64500;SDS011;50874;24.150;-110.320;2023-05-18T07:45:27;5.40;;;2.15;;
64500;SDS011;50874;24.150;-110.320;2023-05-18T07:47:53;5.20;;;2.28;;
64500;SDS011;50874;24.150;-110.320;2023-05-18T07:50:20;4.90;;;1.77;;
64500;SDS011;50874;24.150;-110.320;2023-05-18T07:52:46;8.20;;;2.63;;
64500;SDS011;50874;24.150;-110.320;2023-05-18T07:55:13;8.35;;;2.35;;
64500;SDS011;50874;24.150;-110.320;2023-05-18T07:57:39;6.95;;;2.10;;
64500;SDS011;50874;24.150;-110.320;2023-05-18T08:00:07;6.38;;;2.33;;
64500;SDS011;50874;24.150;-110.320;2023-05-18T08:02:34;5.82;;;1.90;;
64500;SDS011;50874;24.150;-110.320;2023-05-18T08:05:01;6.38;;;1.77;;
64500;SDS011;50874;24.150;-110.320;2023-05-18T08:07:29;4.40;;;1.88;;
64500;SDS011;50874;24.150;-110.320;2023-05-18T08:09:57;3.55;;;1.88;;
64500;SDS011;50874;24.150;-110.320;2023-05-18T08:12:23;8.73;;;1.98;;
64500;SDS011;50874;24.150;-110.320;2023-05-18T08:14:50;6.35;;;2.28;;
64500;SDS011;50874;24.150;-110.320;2023-05-18T08:17:16;7.43;;;2.08;;
64500;SDS011;50874;24.150;-110.320;2023-05-18T08:19:43;9.27;;;1.90;;
64500;SDS011;50874;24.150;-110.320;2023-05-18T08:22:11;5.78;;;1.52;;
64500;SDS011;50874;24.150;-110.320;2023-05-18T08:24:38;6.85;;;1.63;;
64500;SDS011;50874;24.150;-110.320;2023-05-18T08:27:05;3.88;;;1.75;;
64500;SDS011;50874;24.150;-110.320;2023-05-18T08:29:34;3.35;;;1.88;;
64500;SDS011;50874;24.150;-110.320;2023-05-18T08:32:00;7.78;;;2.08;;
64500;SDS011;50874;24.150;-110.320;2023-05-18T08:34:27;3.35;;;1.50;;
64500;SDS011;50874;24.150;-110.320;2023-05-18T08:36:54;3.35;;;2.08;;
64500;SDS011;50874;24.150;-110.320;2023-05-18T08:39:20;3.30;;;1.45;;
64500;SDS011;50874;24.150;-110.320;2023-05-18T08:44:47;6.38;;;1.88;;
64500;SDS011;50874;24.150;-110.320;2023-05-18T08:47:23;3.10;;;1.60;;
64500;SDS011;50874;24.150;-110.320;2023-05-18T08:49:51;4.18;;;1.58;;
64500;SDS011;50874;24.150;-110.320;2023-05-18T08:52:21;5.13;;;1.40;;
64500;SDS011;50874;24.150;-110.320;2023-05-18T08:54:53;3.53;;;1.20;;
64500;SDS011;50874;24.150;-110.320;2023-05-18T08:57:21;2.08;;;1.48;;
64500;SDS011;50874;24.150;-110.320;2023-05-18T08:59:48;4.80;;;1.50;;
64500;SDS011;50874;24.150;-110.320;2023-05-18T09:02:18;4.90;;;1.50;;
64500;SDS011;50874;24.150;-110.320;2023-05-18T09:04:44;3.65;;;1.30;;
64500;SDS011;50874;24.150;-110.320;2023-05-18T09:07:11;3.33;;;1.52;;
64500;SDS011;50874;24.150;-110.320;2023-05-18T09:09:39;4.40;;;1.92;;
64500;SDS011;50874;24.150;-110.320;2023-05-18T09:12:06;13.63;;;2.00;;
64500;SDS011;50874;24.150;-110.320;2023-05-18T09:14:34;7.88;;;1.58;;
64500;SDS011;50874;24.150;-110.320;2023-05-18T09:17:00;5.80;;;1.73;;
64500;SDS011;50874;24.150;-110.320;2023-05-18T09:19:27;3.60;;;1.52;;
64500;SDS011;50874;24.150;-110.320;2023-05-18T09:21:54;4.30;;;1.20;;
64500;SDS011;50874;24.150;-110.320;2023-05-18T09:24:20;3.95;;;1.70;;
64500;SDS011;50874;24.150;-110.320;2023-05-18T09:26:47;3.75;;;1.20;;
64500;SDS011;50874;24.150;-110.320;2023-05-18T09:29:15;5.20;;;1.30;;
64500;SDS011;50874;24.150;-110.320;2023-05-18T09:31:46;4.95;;;1.67;;
64500;SDS011;50874;24.150;-110.320;2023-05-18T09:34:13;4.95;;;1.40;;
64500;SDS011;50874;24.150;-110.320;2023-05-18T09:36:40;4.20;;;1.33;;
64500;SDS011;50874;24.150;-110.320;2023-05-18T09:39:11;4.72;;;1.30;;
64500;SDS011;50874;24.150;-110.320;2023-05-18T09:41:38;6.40;;;1.40;;
64500;SDS011;50874;24.150;-110.320;2023-05-18T09:44:05;4.05;;;1.50;;
64500;SDS011;50874;24.150;-110.320;2023-05-18T09:46:37;4.28;;;1.30;;
64500;SDS011;50874;24.150;-110.320;2023-05-18T09:49:04;3.15;;;1.13;;
64500;SDS011;50874;24.150;-110.320;2023-05-18T09:51:35;6.18;;;1.42;;
64500;SDS011;50874;24.150;-110.320;2023-05-18T09:54:03;4.95;;;1.45;;
64500;SDS011;50874;24.150;-110.320;2023-05-18T09:56:33;6.65;;;1.23;;
64500;SDS011;50874;24.150;-110.320;2023-05-18T09:59:10;4.38;;;1.50;;
64500;SDS011;50874;24.150;-110.320;2023-05-18T10:02:11;3.25;;;1.20;;
64500;SDS011;50874;24.150;-110.320;2023-05-18T10:04:41;6.57;;;1.48;;
64500;SDS011;50874;24.150;-110.320;2023-05-18T10:07:09;2.38;;;1.30;;
64500;SDS011;50874;24.150;-110.320;2023-05-18T10:09:38;2.05;;;1.33;;
64500;SDS011;50874;24.150;-110.320;2023-05-18T10:12:09;2.75;;;1.10;;
64500;SDS011;50874;24.150;-110.320;2023-05-18T10:14:36;4.15;;;1.40;;
64500;SDS011;50874;24.150;-110.320;2023-05-18T10:17:04;8.07;;;1.90;;
64500;SDS011;50874;24.150;-110.320;2023-05-18T10:19:32;3.90;;;1.30;;
64500;SDS011;50874;24.150;-110.320;2023-05-18T10:22:02;3.47;;;1.20;;
64500;SDS011;50874;24.150;-110.320;2023-05-18T10:24:31;5.20;;;1.77;;
64500;SDS011;50874;24.150;-110.320;2023-05-18T10:27:05;4.07;;;1.40;;
64500;SDS011;50874;24.150;-110.320;2023-05-18T10:29:36;4.30;;;1.65;;
64500;SDS011;50874;24.150;-110.320;2023-05-18T10:32:03;6.88;;;1.50;;
64500;SDS011;50874;24.150;-110.320;2023-05-18T10:34:33;3.78;;;1.45;;
64500;SDS011;50874;24.150;-110.320;2023-05-18T10:37:01;3.72;;;1.65;;
64500;SDS011;50874;24.150;-110.320;2023-05-18T10:39:30;4.35;;;1.27;;
64500;SDS011;50874;24.150;-110.320;2023-05-18T10:42:01;4.82;;;1.50;;
64500;SDS011;50874;24.150;-110.320;2023-05-18T10:44:28;8.10;;;1.70;;
64500;SDS011;50874;24.150;-110.320;2023-05-18T10:46:56;3.03;;;1.30;;
64500;SDS011;50874;24.150;-110.320;2023-05-18T10:49:22;3.50;;;1.40;;
64500;SDS011;50874;24.150;-110.320;2023-05-18T10:51:52;2.97;;;1.20;;
64500;SDS011;50874;24.150;-110.320;2023-05-18T10:54:21;4.53;;;1.27;;
64500;SDS011;50874;24.150;-110.320;2023-05-18T10:56:50;2.58;;;1.27;;
64500;SDS011;50874;24.150;-110.320;2023-05-18T10:59:18;4.18;;;1.38;;
64500;SDS011;50874;24.150;-110.320;2023-05-18T11:01:48;3.90;;;1.42;;
64500;SDS011;50874;24.150;-110.320;2023-05-18T11:04:26;3.80;;;1.48;;
64500;SDS011;50874;24.150;-110.320;2023-05-18T11:06:57;7.55;;;1.55;;
64500;SDS011;50874;24.150;-110.320;2023-05-18T11:09:24;4.38;;;1.23;;
64500;SDS011;50874;24.150;-110.320;2023-05-18T11:11:54;4.38;;;1.55;;
64500;SDS011;50874;24.150;-110.320;2023-05-18T11:14:26;5.22;;;1.38;;
64500;SDS011;50874;24.150;-110.320;2023-05-18T11:22:46;5.75;;;1.63;;
64500;SDS011;50874;24.150;-110.320;2023-05-18T11:30:43;3.95;;;1.45;;
64500;SDS011;50874;24.150;-110.320;2023-05-18T11:33:16;2.08;;;1.17;;
64500;SDS011;50874;24.150;-110.320;2023-05-18T11:36:10;8.50;;;1.52;;
64500;SDS011;50874;24.150;-110.320;2023-05-18T11:44:16;4.38;;;1.63;;
64500;SDS011;50874;24.150;-110.320;2023-05-18T11:49:27;3.78;;;2.03;;
64500;SDS011;50874;24.150;-110.320;2023-05-18T11:54:45;8.57;;;1.65;;
64500;SDS011;50874;24.150;-110.320;2023-05-18T11:57:16;5.57;;;1.83;;
64500;SDS011;50874;24.150;-110.320;2023-05-18T11:59:45;12.93;;;2.03;;
64500;SDS011;50874;24.150;-110.320;2023-05-18T12:02:33;7.40;;;2.00;;
64500;SDS011;50874;24.150;-110.320;2023-05-18T12:05:00;4.65;;;1.98;;
64500;SDS011;50874;24.150;-110.320;2023-05-18T12:07:28;9.95;;;2.28;;
64500;SDS011;50874;24.150;-110.320;2023-05-18T12:10:02;9.13;;;2.58;;
64500;SDS011;50874;24.150;-110.320;2023-05-18T12:12:31;6.22;;;1.77;;
64500;SDS011;50874;24.150;-110.320;2023-05-18T12:14:59;6.72;;;2.58;;
64500;SDS011;50874;24.150;-110.320;2023-05-18T12:20:10;9.95;;;2.85;;
64500;SDS011;50874;24.150;-110.320;2023-05-18T12:22:45;6.85;;;2.08;;
64500;SDS011;50874;24.150;-110.320;2023-05-18T12:25:20;8.23;;;1.90;;
64500;SDS011;50874;24.150;-110.320;2023-05-18T12:27:48;9.43;;;1.83;;
64500;SDS011;50874;24.150;-110.320;2023-05-18T12:30:19;9.05;;;2.58;;
64500;SDS011;50874;24.150;-110.320;2023-05-18T12:32:49;12.80;;;2.47;;
64500;SDS011;50874;24.150;-110.320;2023-05-18T12:35:23;9.07;;;2.00;;
64500;SDS011;50874;24.150;-110.320;2023-05-18T12:37:51;6.65;;;1.70;;
64500;SDS011;50874;24.150;-110.320;2023-05-18T12:40:24;9.15;;;2.30;;
64500;SDS011;50874;24.150;-110.320;2023-05-18T12:42:54;9.82;;;2.67;;
64500;SDS011;50874;24.150;-110.320;2023-05-18T12:45:30;11.45;;;2.20;;
64500;SDS011;50874;24.150;-110.320;2023-05-18T12:48:04;7.05;;;1.98;;
64500;SDS011;50874;24.150;-110.320;2023-05-18T12:50:32;3.63;;;1.80;;
64500;SDS011;50874;24.150;-110.320;2023-05-18T12:52:59;12.00;;;2.50;;
64500;SDS011;50874;24.150;-110.320;2023-05-18T12:55:26;8.68;;;2.50;;
64500;SDS011;50874;24.150;-110.320;2023-05-18T12:58:04;5.75;;;1.70;;
64500;SDS011;50874;24.150;-110.320;2023-05-18T13:00:46;8.77;;;2.35;;
64500;SDS011;50874;24.150;-110.320;2023-05-18T13:03:19;11.05;;;2.33;;
64500;SDS011;50874;24.150;-110.320;2023-05-18T13:06:07;5.70;;;2.38;;
64500;SDS011;50874;24.150;-110.320;2023-05-18T13:08:34;6.78;;;2.17;;
64500;SDS011;50874;24.150;-110.320;2023-05-18T13:11:01;8.40;;;2.53;;
64500;SDS011;50874;24.150;-110.320;2023-05-18T13:13:29;11.43;;;2.10;;
64500;SDS011;50874;24.150;-110.320;2023-05-18T13:15:55;10.20;;;3.03;;
64500;SDS011;50874;24.150;-110.320;2023-05-18T13:18:33;10.32;;;2.60;;
64500;SDS011;50874;24.150;-110.320;2023-05-18T13:21:00;11.02;;;2.63;;
64500;SDS011;50874;24.150;-110.320;2023-05-18T13:23:27;13.65;;;2.63;;
64500;SDS011;50874;24.150;-110.320;2023-05-18T13:25:54;13.05;;;2.63;;
64500;SDS011;50874;24.150;-110.320;2023-05-18T13:28:22;15.70;;;2.80;;
64500;SDS011;50874;24.150;-110.320;2023-05-18T13:30:48;14.63;;;3.28;;
64500;SDS011;50874;24.150;-110.320;2023-05-18T13:33:15;15.60;;;2.78;;
64500;SDS011;50874;24.150;-110.320;2023-05-18T13:35:43;10.93;;;2.90;;
64500;SDS011;50874;24.150;-110.320;2023-05-18T13:38:11;14.77;;;3.38;;
64500;SDS011;50874;24.150;-110.320;2023-05-18T13:40:38;9.10;;;2.72;;
64500;SDS011;50874;24.150;-110.320;2023-05-18T13:43:05;12.02;;;3.00;;
64500;SDS011;50874;24.150;-110.320;2023-05-18T13:45:33;13.98;;;3.55;;
64500;SDS011;50874;24.150;-110.320;2023-05-18T13:48:00;16.25;;;4.28;;
64500;SDS011;50874;24.150;-110.320;2023-05-18T13:50:31;24.30;;;3.47;;
64500;SDS011;50874;24.150;-110.320;2023-05-18T13:52:58;33.40;;;3.88;;
64500;SDS011;50874;24.150;-110.320;2023-05-18T13:55:25;21.08;;;3.40;;
64500;SDS011;50874;24.150;-110.320;2023-05-18T13:58:07;29.90;;;4.18;;
64500;SDS011;50874;24.150;-110.320;2023-05-18T14:00:33;47.45;;;5.47;;
64500;SDS011;50874;24.150;-110.320;2023-05-18T14:03:01;22.15;;;3.55;;
64500;SDS011;50874;24.150;-110.320;2023-05-18T14:05:28;23.88;;;4.10;;
64500;SDS011;50874;24.150;-110.320;2023-05-18T14:07:54;16.00;;;3.13;;
64500;SDS011;50874;24.150;-110.320;2023-05-18T14:10:21;15.13;;;2.92;;
64500;SDS011;50874;24.150;-110.320;2023-05-18T14:12:47;15.07;;;3.88;;
64500;SDS011;50874;24.150;-110.320;2023-05-18T14:15:14;58.50;;;6.03;;
64500;SDS011;50874;24.150;-110.320;2023-05-18T14:17:41;17.00;;;3.35;;
64500;SDS011;50874;24.150;-110.320;2023-05-18T14:20:08;16.00;;;2.95;;
64500;SDS011;50874;24.150;-110.320;2023-05-18T14:22:35;23.15;;;4.18;;
64500;SDS011;50874;24.150;-110.320;2023-05-18T14:25:01;32.53;;;3.45;;
64500;SDS011;50874;24.150;-110.320;2023-05-18T14:27:28;25.77;;;3.30;;
64500;SDS011;50874;24.150;-110.320;2023-05-18T14:29:55;62.58;;;7.28;;
64500;SDS011;50874;24.150;-110.320;2023-05-18T14:32:21;15.77;;;3.35;;
64500;SDS011;50874;24.150;-110.320;2023-05-18T14:34:48;13.13;;;2.33;;
64500;SDS011;50874;24.150;-110.320;2023-05-18T14:37:19;10.52;;;2.40;;
64500;SDS011;50874;24.150;-110.320;2023-05-18T14:39:45;13.82;;;2.05;;
64500;SDS011;50874;24.150;-110.320;2023-05-18T14:42:12;9.90;;;2.25;;
64500;SDS011;50874;24.150;-110.320;2023-05-18T14:44:38;16.92;;;3.58;;
64500;SDS011;50874;24.150;-110.320;2023-05-18T14:47:05;11.63;;;2.72;;